createdAt,value
2022-09-20T00:00:21.883Z,98.83
2022-09-20T00:01:22.067Z,98.83
2022-09-20T00:02:21.889Z,98.83
2022-09-20T00:03:21.853Z,98.83
2022-09-20T00:04:21.838Z,98.83
2022-09-20T00:05:21.875Z,98.83
2022-09-20T00:06:21.816Z,98.83
2022-09-20T00:07:21.832Z,98.83
2022-09-20T00:08:21.801Z,98.83
2022-09-20T00:09:21.793Z,98.83
2022-09-20T00:10:21.779Z,98.83
2022-09-20T00:11:21.774Z,98.83
2022-09-20T00:12:21.777Z,98.83
2022-09-20T00:13:21.753Z,98.83
2022-09-20T00:14:21.742Z,98.83
2022-09-20T00:15:21.728Z,98.83
2022-09-20T00:16:21.782Z,98.83
2022-09-20T00:17:21.733Z,98.83
2022-09-20T00:18:21.690Z,98.83
2022-09-20T00:19:21.686Z,98.83
2022-09-20T00:20:21.667Z,98.83
2022-09-20T00:21:21.659Z,98.83
2022-09-20T00:22:21.670Z,98.83
2022-09-20T00:23:21.646Z,98.83
2022-09-20T00:24:21.634Z,98.83
2022-09-20T00:25:21.621Z,98.93
2022-09-20T00:26:21.603Z,98.83
2022-09-20T00:27:21.612Z,98.83
2022-09-20T00:28:21.580Z,98.83
2022-09-20T00:29:21.576Z,98.87
2022-09-20T00:30:21.570Z,98.87
2022-09-20T00:31:21.658Z,98.87
2022-09-20T00:32:21.560Z,98.87
2022-09-20T00:33:21.537Z,98.87
2022-09-20T00:34:21.526Z,98.87
2022-09-20T00:35:21.510Z,98.87
2022-09-20T00:36:21.500Z,98.87
2022-09-20T00:37:21.508Z,98.87
2022-09-20T00:38:21.486Z,98.87
2022-09-20T00:39:21.486Z,98.87
2022-09-20T00:40:21.527Z,98.87
2022-09-20T00:41:21.447Z,98.87
2022-09-20T00:42:21.468Z,98.87
2022-09-20T00:43:21.436Z,98.87
2022-09-20T00:44:21.425Z,98.87
2022-09-20T00:45:21.405Z,98.87
2022-09-20T00:46:21.450Z,98.87
2022-09-20T00:47:21.403Z,98.97
2022-09-20T00:48:21.377Z,98.97
2022-09-20T00:49:21.369Z,98.97
2022-09-20T00:50:21.344Z,98.97
2022-09-20T00:51:21.345Z,99.08
2022-09-20T00:52:21.349Z,99.08
2022-09-20T00:53:21.324Z,99.08
2022-09-20T00:54:21.311Z,99.08
2022-09-20T00:55:21.316Z,98.97
2022-09-20T00:56:21.290Z,98.97
2022-09-20T00:57:21.305Z,99.02
2022-09-20T00:58:21.272Z,99.02
2022-09-20T00:59:21.253Z,99.02
2022-09-20T01:00:21.238Z,99.12
2022-09-20T01:01:21.351Z,99.12
2022-09-20T01:02:21.332Z,99.12
2022-09-20T01:03:21.214Z,99.12
2022-09-20T01:04:21.203Z,99.12
2022-09-20T01:05:21.195Z,99.12
2022-09-20T01:06:21.191Z,99.12
2022-09-20T01:07:21.183Z,99.12
2022-09-20T01:08:21.152Z,99.22
2022-09-20T01:09:21.148Z,99.22
2022-09-20T01:10:21.137Z,99.22
2022-09-20T01:11:21.113Z,99.22
2022-09-20T01:12:21.120Z,99.22
2022-09-20T01:13:21.105Z,99.22
2022-09-20T01:14:21.079Z,99.22
2022-09-20T01:15:21.076Z,99.22
2022-09-20T01:16:21.127Z,99.22
2022-09-20T01:17:21.072Z,99.22
2022-09-20T01:18:21.047Z,99.12
2022-09-20T01:19:21.067Z,99.12
2022-09-20T01:20:21.027Z,99.22
2022-09-20T01:21:21.014Z,99.22
2022-09-20T01:22:21.031Z,99.22
2022-09-20T01:23:21.034Z,99.22
2022-09-20T01:24:20.987Z,99.22
2022-09-20T01:25:20.964Z,99.22
2022-09-20T01:26:20.967Z,99.33
2022-09-20T01:27:20.969Z,99.33
2022-09-20T01:28:20.946Z,99.33
2022-09-20T01:29:20.934Z,99.33
2022-09-20T01:30:20.914Z,99.33
2022-09-20T01:31:20.961Z,99.22
2022-09-20T01:32:20.900Z,99.22
2022-09-20T01:33:20.890Z,99.22
2022-09-20T01:34:20.879Z,99.17
2022-09-20T01:35:20.861Z,99.17
2022-09-20T01:36:20.855Z,99.17
2022-09-20T01:37:20.856Z,99.17
2022-09-20T01:38:20.824Z,99.07
2022-09-20T01:39:20.838Z,99.17
2022-09-20T01:40:20.858Z,99.17
2022-09-20T01:41:20.799Z,99.17
2022-09-20T01:42:20.808Z,99.17
2022-09-20T01:43:20.779Z,99.17
2022-09-20T01:44:20.767Z,99.17
2022-09-20T01:45:20.760Z,99.27
2022-09-20T01:46:20.873Z,99.27
2022-09-20T01:47:20.742Z,99.27
2022-09-20T01:48:20.729Z,99.27
2022-09-20T01:49:20.714Z,99.27
2022-09-20T01:50:20.703Z,99.27
2022-09-20T01:51:20.697Z,99.27
2022-09-20T01:52:20.703Z,99.27
2022-09-20T01:53:20.661Z,99.27
2022-09-20T01:54:20.665Z,99.27
2022-09-20T01:55:20.647Z,99.27
2022-09-20T01:56:20.654Z,99.27
2022-09-20T01:57:25.055Z,99.38
2022-09-20T01:58:20.641Z,99.27
2022-09-20T01:59:24.004Z,99.38
2022-09-20T02:00:20.587Z,99.38
2022-09-20T02:01:20.643Z,99.38
2022-09-20T02:02:20.600Z,99.38
2022-09-20T02:03:20.583Z,99.38
2022-09-20T02:04:20.560Z,99.38
2022-09-20T02:05:20.535Z,99.38
2022-09-20T02:06:20.532Z,99.38
2022-09-20T02:07:20.511Z,99.38
2022-09-20T02:08:20.528Z,99.38
2022-09-20T02:09:20.488Z,99.38
2022-09-20T02:10:20.482Z,99.38
2022-09-20T02:11:20.478Z,99.38
2022-09-20T02:12:20.474Z,99.38
2022-09-20T02:13:20.465Z,99.38
2022-09-20T02:14:20.475Z,99.38
2022-09-20T02:15:20.445Z,99.38
2022-09-20T02:16:20.463Z,99.42
2022-09-20T02:17:20.417Z,99.42
2022-09-20T02:18:20.405Z,99.42
2022-09-20T02:19:20.407Z,99.52
2022-09-20T02:20:20.371Z,99.52
2022-09-20T02:21:20.370Z,99.52
2022-09-20T02:22:20.349Z,99.52
2022-09-20T02:23:20.365Z,99.52
2022-09-20T02:24:20.326Z,99.52
2022-09-20T02:25:20.330Z,99.52
2022-09-20T02:26:20.314Z,99.63
2022-09-20T02:27:20.300Z,99.63
2022-09-20T02:28:20.298Z,99.63
2022-09-20T02:29:20.281Z,99.63
2022-09-20T02:30:20.267Z,99.73
2022-09-20T02:31:20.323Z,99.73
2022-09-20T02:32:20.244Z,99.73
2022-09-20T02:33:20.255Z,99.73
2022-09-20T02:34:20.228Z,99.73
2022-09-20T02:35:20.217Z,99.73
2022-09-20T02:36:20.199Z,99.73
2022-09-20T02:37:20.181Z,99.73
2022-09-20T02:38:20.195Z,99.73
2022-09-20T02:39:20.172Z,99.73
2022-09-20T02:40:20.258Z,99.73
2022-09-20T02:41:20.159Z,99.73
2022-09-20T02:42:20.135Z,99.73
2022-09-20T02:43:20.148Z,99.73
2022-09-20T02:44:20.119Z,99.73
2022-09-20T02:45:20.105Z,99.63
2022-09-20T02:46:20.127Z,99.63
2022-09-20T02:47:20.084Z,99.42
2022-09-20T02:48:20.084Z,99.47
2022-09-20T02:49:20.066Z,99.37
2022-09-20T02:50:20.056Z,99.37
2022-09-20T02:51:20.040Z,99.37
2022-09-20T02:52:20.027Z,99.37
2022-09-20T02:53:20.033Z,99.37
2022-09-20T02:54:19.998Z,99.37
2022-09-20T02:55:19.996Z,99.37
2022-09-20T02:56:19.969Z,99.47
2022-09-20T02:57:19.971Z,99.47
2022-09-20T02:58:19.969Z,99.47
2022-09-20T02:59:19.945Z,99.47
2022-09-20T03:00:19.925Z,99.47
2022-09-20T03:01:20.016Z,99.47
2022-09-20T03:02:20.007Z,99.47
2022-09-20T03:03:19.927Z,99.47
2022-09-20T03:04:19.897Z,99.47
2022-09-20T03:05:19.878Z,99.47
2022-09-20T03:06:19.872Z,99.47
2022-09-20T03:07:19.859Z,99.47
2022-09-20T03:08:19.863Z,99.47
2022-09-20T03:09:19.837Z,99.47
2022-09-20T03:10:19.830Z,99.47
2022-09-20T03:11:19.832Z,99.47
2022-09-20T03:12:19.806Z,99.47
2022-09-20T03:13:19.813Z,99.37
2022-09-20T03:14:19.789Z,99.37
2022-09-20T03:15:19.770Z,99.37
2022-09-20T03:16:19.861Z,99.37
2022-09-20T03:17:19.754Z,99.26
2022-09-20T03:18:19.766Z,99.26
2022-09-20T03:19:19.736Z,99.26
2022-09-20T03:20:19.730Z,99.26
2022-09-20T03:21:19.713Z,99.21
2022-09-20T03:22:19.686Z,99.21
2022-09-20T03:23:19.722Z,99.21
2022-09-20T03:24:19.676Z,99.21
2022-09-20T03:25:19.662Z,99.21
2022-09-20T03:26:19.660Z,99.21
2022-09-20T03:27:19.641Z,99.21
2022-09-20T03:28:19.645Z,99.21
2022-09-20T03:29:19.611Z,99.21
2022-09-20T03:30:19.607Z,99.21
2022-09-20T03:31:19.652Z,99.21
2022-09-20T03:32:19.604Z,99.21
2022-09-20T03:33:19.596Z,99.21
2022-09-20T03:34:19.562Z,99.10
2022-09-20T03:35:19.553Z,99.10
2022-09-20T03:36:19.555Z,99.10
2022-09-20T03:37:19.533Z,99.10
2022-09-20T03:38:19.542Z,99.10
2022-09-20T03:39:19.517Z,99.10
2022-09-20T03:40:19.563Z,99.10
2022-09-20T03:41:19.485Z,99.10
2022-09-20T03:42:19.473Z,99.10
2022-09-20T03:43:19.490Z,99.10
2022-09-20T03:44:19.457Z,99.10
2022-09-20T03:45:19.454Z,99.10
2022-09-20T03:46:19.537Z,99.00
2022-09-20T03:47:19.419Z,99.05
2022-09-20T03:48:19.435Z,99.05
2022-09-20T03:49:19.405Z,98.94
2022-09-20T03:50:19.399Z,98.94
2022-09-20T03:51:19.381Z,99.05
2022-09-20T03:52:19.370Z,99.05
2022-09-20T03:53:19.376Z,99.05
2022-09-20T03:54:19.354Z,99.05
2022-09-20T03:55:19.333Z,99.15
2022-09-20T03:56:19.329Z,99.05
2022-09-20T03:57:19.312Z,99.05
2022-09-20T03:58:19.311Z,99.05
2022-09-20T03:59:19.307Z,99.05
2022-09-20T04:00:19.282Z,99.05
2022-09-20T04:01:19.408Z,99.05
2022-09-20T04:02:19.278Z,99.05
2022-09-20T04:03:19.277Z,99.05
2022-09-20T04:04:19.246Z,99.05
2022-09-20T04:05:19.224Z,98.94
2022-09-20T04:06:19.215Z,98.94
2022-09-20T04:07:19.206Z,98.94
2022-09-20T04:08:19.210Z,98.99
2022-09-20T04:09:19.182Z,98.99
2022-09-20T04:10:19.176Z,99.09
2022-09-20T04:11:19.158Z,99.09
2022-09-20T04:12:19.139Z,99.09
2022-09-20T04:13:19.160Z,99.09
2022-09-20T04:14:19.128Z,99.09
2022-09-20T04:15:19.119Z,99.19
2022-09-20T04:16:19.154Z,99.19
2022-09-20T04:17:19.098Z,99.19
2022-09-20T04:18:19.102Z,99.09
2022-09-20T04:19:19.072Z,99.09
2022-09-20T04:20:19.061Z,99.09
2022-09-20T04:21:19.051Z,99.09
2022-09-20T04:22:19.033Z,99.09
2022-09-20T04:23:19.048Z,99.09
2022-09-20T04:24:19.010Z,99.09
2022-09-20T04:25:19.013Z,99.09
2022-09-20T04:26:18.990Z,99.09
2022-09-20T04:27:18.976Z,99.19
2022-09-20T04:28:18.990Z,99.19
2022-09-20T04:29:18.958Z,99.19
2022-09-20T04:30:18.942Z,99.19
2022-09-20T04:31:20.861Z,99.19
2022-09-20T04:32:18.971Z,99.19
2022-09-20T04:33:18.937Z,99.09
2022-09-20T04:34:18.907Z,99.09
2022-09-20T04:35:18.899Z,99.09
2022-09-20T04:36:18.890Z,99.09
2022-09-20T04:37:18.868Z,99.09
2022-09-20T04:38:18.892Z,99.19
2022-09-20T04:39:18.855Z,99.19
2022-09-20T04:40:18.923Z,99.24
2022-09-20T04:41:18.833Z,99.24
2022-09-20T04:42:18.818Z,99.19
2022-09-20T04:43:18.810Z,99.24
2022-09-20T04:44:18.832Z,99.24
2022-09-20T04:45:18.782Z,99.24
2022-09-20T04:46:18.782Z,99.24
2022-09-20T04:47:18.765Z,99.24
2022-09-20T04:48:18.761Z,99.24
2022-09-20T04:49:18.773Z,99.24
2022-09-20T04:50:18.736Z,99.14
2022-09-20T04:51:18.714Z,99.14
2022-09-20T04:52:18.706Z,99.14
2022-09-20T04:53:18.705Z,99.14
2022-09-20T04:54:18.690Z,99.14
2022-09-20T04:55:18.693Z,99.14
2022-09-20T04:56:18.657Z,99.14
2022-09-20T04:57:18.644Z,99.04
2022-09-20T04:58:18.643Z,99.04
2022-09-20T04:59:18.642Z,99.04
2022-09-20T05:00:18.620Z,99.04
2022-09-20T05:01:18.684Z,99.04
2022-09-20T05:02:18.651Z,99.04
2022-09-20T05:03:18.585Z,99.04
2022-09-20T05:04:18.592Z,99.04
2022-09-20T05:05:18.583Z,99.14
2022-09-20T05:06:18.551Z,99.04
2022-09-20T05:07:18.541Z,99.14
2022-09-20T05:08:18.532Z,99.14
2022-09-20T05:09:18.542Z,99.04
2022-09-20T05:10:25.062Z,99.04
2022-09-20T05:11:18.491Z,99.14
2022-09-20T05:12:18.479Z,99.14
2022-09-20T05:13:18.473Z,99.14
2022-09-20T05:14:18.545Z,99.14
2022-09-20T05:15:18.453Z,99.14
2022-09-20T05:16:18.515Z,99.14
2022-09-20T05:17:18.468Z,99.14
2022-09-20T05:18:18.417Z,99.14
2022-09-20T05:19:18.452Z,99.04
2022-09-20T05:20:18.404Z,99.14
2022-09-20T05:21:18.385Z,99.04
2022-09-20T05:22:18.381Z,99.04
2022-09-20T05:23:18.374Z,99.04
2022-09-20T05:24:18.366Z,99.04
2022-09-20T05:25:18.352Z,99.04
2022-09-20T05:26:18.346Z,99.04
2022-09-20T05:27:18.319Z,99.04
2022-09-20T05:28:18.317Z,99.14
2022-09-20T05:29:18.323Z,99.14
2022-09-20T05:30:18.297Z,99.24
2022-09-20T05:31:18.338Z,99.24
2022-09-20T05:32:18.267Z,99.30
2022-09-20T05:33:18.275Z,99.30
2022-09-20T05:34:18.293Z,99.30
2022-09-20T05:35:18.244Z,99.19
2022-09-20T05:36:18.236Z,99.19
2022-09-20T05:37:18.213Z,99.19
2022-09-20T05:38:18.229Z,99.19
2022-09-20T05:39:18.214Z,99.09
2022-09-20T05:40:18.265Z,98.99
2022-09-20T05:41:18.181Z,98.99
2022-09-20T05:42:18.159Z,99.09
2022-09-20T05:43:18.158Z,99.09
2022-09-20T05:44:18.170Z,99.09
2022-09-20T05:45:18.135Z,99.09
2022-09-20T05:46:18.133Z,99.09
2022-09-20T05:47:18.114Z,99.09
2022-09-20T05:48:18.111Z,99.09
2022-09-20T05:49:18.102Z,99.19
2022-09-20T05:50:18.115Z,99.19
2022-09-20T05:51:18.059Z,99.19
2022-09-20T05:52:18.087Z,99.19
2022-09-20T05:53:18.039Z,99.19
2022-09-20T05:54:18.044Z,99.24
2022-09-20T05:55:18.029Z,99.34
2022-09-20T05:56:18.000Z,99.30
2022-09-20T05:57:17.987Z,99.34
2022-09-20T05:58:18.001Z,99.44
2022-09-20T05:59:18.003Z,99.44
2022-09-20T06:00:17.972Z,99.51
2022-09-20T06:01:18.025Z,99.51
2022-09-20T06:02:17.997Z,99.60
2022-09-20T06:03:17.948Z,99.60
2022-09-20T06:04:17.936Z,99.71
2022-09-20T06:05:17.933Z,99.71
2022-09-20T06:06:17.894Z,99.71
2022-09-20T06:07:17.996Z,99.71
2022-09-20T06:08:17.876Z,99.71
2022-09-20T06:09:18.024Z,99.81
2022-09-20T06:10:17.884Z,99.81
2022-09-20T06:11:17.901Z,99.81
2022-09-20T06:12:17.825Z,99.81
2022-09-20T06:13:17.918Z,99.81
2022-09-20T06:14:17.823Z,99.81
2022-09-20T06:15:17.896Z,99.71
2022-09-20T06:16:17.835Z,99.71
2022-09-20T06:17:17.862Z,99.71
2022-09-20T06:18:17.758Z,99.71
2022-09-20T06:19:17.824Z,99.71
2022-09-20T06:20:17.749Z,99.81
2022-09-20T06:21:17.727Z,99.91
2022-09-20T06:22:17.721Z,99.91
2022-09-20T06:23:17.757Z,99.87
2022-09-20T06:24:17.718Z,99.97
2022-09-20T06:25:17.701Z,99.97
2022-09-20T06:26:17.676Z,99.97
2022-09-20T06:27:17.685Z,99.97
2022-09-20T06:28:17.651Z,99.99
2022-09-20T06:29:17.687Z,99.99
2022-09-20T06:30:17.633Z,99.99
2022-09-20T06:31:17.631Z,99.99
2022-09-20T06:32:17.607Z,99.99
2022-09-20T06:33:17.602Z,99.99
2022-09-20T06:34:17.604Z,99.99
2022-09-20T06:35:17.594Z,99.99
2022-09-20T06:36:17.595Z,99.99
2022-09-20T06:37:17.560Z,99.99
2022-09-20T06:38:17.555Z,99.99
2022-09-20T06:39:17.561Z,99.99
2022-09-20T06:40:17.604Z,99.99
2022-09-20T06:41:17.522Z,99.99
2022-09-20T06:42:17.521Z,99.99
2022-09-20T06:43:17.497Z,99.99
2022-09-20T06:44:17.496Z,99.99
2022-09-20T06:45:17.481Z,99.99
2022-09-20T06:46:17.554Z,99.99
2022-09-20T06:47:17.535Z,99.99
2022-09-20T06:48:17.441Z,99.99
2022-09-20T06:49:17.452Z,99.99
2022-09-20T06:50:17.441Z,99.99
2022-09-20T06:51:17.410Z,99.99
2022-09-20T06:52:17.410Z,99.99
2022-09-20T06:53:17.430Z,99.99
2022-09-20T06:54:17.404Z,99.99
2022-09-20T06:55:17.381Z,99.99
2022-09-20T06:56:17.402Z,99.99
2022-09-20T06:57:17.361Z,99.99
2022-09-20T06:58:17.343Z,99.99
2022-09-20T06:59:17.365Z,99.99
2022-09-20T07:00:17.314Z,99.99
2022-09-20T07:01:29.079Z,99.99
2022-09-20T07:02:17.344Z,99.99
2022-09-20T07:03:17.299Z,99.99
2022-09-20T07:04:17.278Z,99.99
2022-09-20T07:05:17.248Z,99.99
2022-09-20T07:06:17.237Z,99.99
2022-09-20T07:07:17.292Z,99.99
2022-09-20T07:08:17.223Z,99.99
2022-09-20T07:09:17.241Z,99.99
2022-09-20T07:10:17.198Z,99.99
2022-09-20T07:11:17.202Z,99.99
2022-09-20T07:12:17.193Z,99.99
2022-09-20T07:13:17.261Z,99.99
2022-09-20T07:14:17.181Z,99.99
2022-09-20T07:15:17.181Z,99.99
2022-09-20T07:16:17.266Z,99.99
2022-09-20T07:17:17.146Z,99.99
2022-09-20T07:18:17.109Z,99.99
2022-09-20T07:19:17.154Z,99.99
2022-09-20T07:20:21.225Z,99.99
2022-09-20T07:21:17.081Z,99.99
2022-09-20T07:22:17.066Z,99.99
2022-09-20T07:23:17.078Z,99.99
2022-09-20T07:24:17.050Z,99.99
2022-09-20T07:25:17.035Z,99.99
2022-09-20T07:26:17.020Z,99.99
2022-09-20T07:27:17.012Z,99.99
2022-09-20T07:28:17.011Z,99.99
2022-09-20T07:29:17.043Z,99.99
2022-09-20T07:30:17.002Z,99.99
2022-09-20T07:31:17.037Z,99.99
2022-09-20T07:32:16.962Z,99.99
2022-09-20T07:33:16.951Z,99.99
2022-09-20T07:34:16.979Z,99.99
2022-09-20T07:35:16.940Z,99.99
2022-09-20T07:36:16.910Z,99.99
2022-09-20T07:37:16.907Z,99.99
2022-09-20T07:38:16.883Z,99.99
2022-09-20T07:39:16.917Z,99.99
2022-09-20T07:40:16.919Z,99.99
2022-09-20T07:41:16.858Z,99.99
2022-09-20T07:42:16.845Z,99.99
2022-09-20T07:43:16.854Z,99.99
2022-09-20T07:44:16.838Z,99.99
2022-09-20T07:45:16.842Z,99.99
2022-09-20T07:46:16.801Z,99.99
2022-09-20T07:47:16.791Z,99.99
2022-09-20T07:48:16.791Z,99.99
2022-09-20T07:49:16.794Z,99.99
2022-09-20T07:50:16.766Z,99.99
2022-09-20T07:51:16.749Z,99.99
2022-09-20T07:52:16.751Z,99.99
2022-09-20T07:53:16.758Z,99.99
2022-09-20T07:54:16.729Z,99.99
2022-09-20T07:55:16.699Z,99.99
2022-09-20T07:56:16.684Z,99.99
2022-09-20T07:57:16.708Z,99.99
2022-09-20T07:58:16.660Z,99.99
2022-09-20T07:59:16.681Z,99.99
2022-09-20T08:00:16.651Z,99.99
2022-09-20T08:01:16.664Z,99.99
2022-09-20T08:02:16.753Z,99.99
2022-09-20T08:03:16.611Z,99.99
2022-09-20T08:04:16.644Z,99.99
2022-09-20T08:05:16.609Z,99.99
2022-09-20T08:06:16.576Z,99.99
2022-09-20T08:07:16.568Z,99.99
2022-09-20T08:08:16.562Z,99.99
2022-09-20T08:09:16.570Z,99.99
2022-09-20T08:10:16.535Z,99.99
2022-09-20T08:11:16.532Z,99.99
2022-09-20T08:14:16.725Z,99.99
2022-09-20T08:15:16.486Z,99.99
2022-09-20T08:16:16.528Z,99.99
2022-09-20T08:17:16.467Z,99.99
2022-09-20T08:18:16.457Z,99.99
2022-09-20T08:19:16.456Z,99.99
2022-09-20T08:20:16.432Z,99.99
2022-09-20T08:21:16.424Z,99.99
2022-09-20T08:22:16.407Z,99.99
2022-09-20T08:23:24.236Z,99.99
2022-09-20T08:24:16.475Z,99.99
2022-09-20T08:25:16.378Z,99.99
2022-09-20T08:26:16.364Z,99.99
2022-09-20T08:27:16.351Z,99.99
2022-09-20T08:28:16.349Z,99.99
2022-09-20T08:29:16.347Z,99.99
2022-09-20T08:30:16.325Z,99.99
2022-09-20T08:31:16.359Z,99.99
2022-09-20T08:32:16.304Z,99.99
2022-09-20T08:33:16.286Z,99.99
2022-09-20T08:34:16.297Z,99.99
2022-09-20T08:35:16.265Z,99.99
2022-09-20T08:36:16.253Z,99.99
2022-09-20T08:37:16.242Z,99.99
2022-09-20T08:40:16.263Z,99.99
2022-09-20T08:41:16.196Z,99.99
2022-09-20T08:42:16.184Z,99.99
2022-09-20T08:43:21.995Z,99.99
2022-09-20T08:44:16.201Z,99.89
2022-09-20T08:45:33.805Z,99.89
2022-09-20T08:46:16.209Z,99.68
2022-09-20T08:47:16.133Z,99.64
2022-09-20T08:48:16.124Z,99.54
2022-09-20T08:49:16.120Z,99.43
2022-09-20T08:50:17.929Z,99.23
2022-09-20T08:51:22.638Z,98.77
2022-09-20T08:52:16.076Z,98.52
2022-09-20T08:53:21.476Z,98.52
2022-09-20T08:54:16.071Z,98.82
2022-09-20T08:55:16.046Z,98.61
2022-09-20T08:56:16.044Z,98.00
2022-09-20T08:57:16.027Z,97.49
2022-09-20T08:58:16.007Z,97.14
2022-09-20T08:59:16.014Z,96.53
2022-09-20T09:00:15.998Z,96.43
2022-09-20T09:01:16.012Z,96.43
2022-09-20T09:02:16.009Z,96.33
2022-09-20T09:03:15.953Z,95.97
2022-09-20T09:04:15.963Z,96.08
2022-09-20T09:05:15.936Z,95.77
2022-09-20T09:06:18.459Z,95.12
2022-09-20T09:07:15.910Z,95.32
2022-09-20T09:08:15.902Z,94.97
2022-09-20T09:09:15.912Z,94.56
2022-09-20T09:10:15.875Z,94.31
2022-09-20T09:11:15.866Z,94.21
2022-09-20T09:12:15.849Z,93.76
2022-09-20T09:13:15.846Z,93.35
2022-09-20T09:14:15.846Z,92.64
2022-09-20T09:15:17.554Z,90.70
2022-09-20T09:16:22.518Z,89.54
2022-09-20T09:17:15.808Z,89.24
2022-09-20T09:18:15.791Z,88.83
2022-09-20T09:19:15.823Z,88.08
2022-09-20T09:20:15.773Z,87.87
2022-09-20T09:21:15.757Z,88.08
2022-09-20T09:22:15.752Z,89.30
2022-09-20T09:23:15.730Z,89.36
2022-09-20T09:24:15.727Z,89.66
2022-09-20T09:25:15.730Z,90.07
2022-09-20T09:26:15.698Z,89.97
2022-09-20T09:27:15.688Z,87.73
2022-09-20T09:28:15.674Z,87.12
2022-09-20T09:29:15.673Z,88.34
2022-09-20T09:30:15.677Z,88.44
2022-09-20T09:31:15.685Z,88.24
2022-09-20T09:32:15.646Z,88.24
2022-09-20T09:33:15.626Z,88.04
2022-09-20T09:34:15.617Z,87.73
2022-09-20T09:35:15.619Z,88.08
2022-09-20T09:36:15.589Z,88.24
2022-09-20T09:37:15.581Z,88.44
2022-09-20T09:38:15.562Z,88.54
2022-09-20T09:39:15.578Z,87.53
2022-09-20T09:40:15.689Z,87.23
2022-09-20T09:41:15.540Z,87.02
2022-09-20T09:42:15.533Z,86.41
2022-09-20T09:43:15.512Z,87.08
2022-09-20T09:44:15.502Z,87.38
2022-09-20T09:45:15.508Z,86.88
2022-09-20T09:46:15.513Z,84.74
2022-09-20T09:47:15.473Z,84.03
2022-09-20T09:48:15.460Z,79.97
2022-09-20T09:49:15.727Z,80.58
2022-09-20T09:50:15.484Z,81.76
2022-09-20T09:51:15.468Z,81.82
2022-09-20T09:52:15.413Z,82.64
2022-09-20T09:53:15.403Z,82.80
2022-09-20T09:54:15.398Z,82.70
2022-09-20T09:55:15.396Z,83.20
2022-09-20T09:56:15.369Z,83.81
2022-09-20T09:57:15.363Z,82.09
2022-09-20T09:58:15.355Z,81.78
2022-09-20T09:59:15.348Z,81.99
2022-09-20T10:00:21.414Z,82.50
2022-09-20T10:01:15.390Z,83.10
2022-09-20T10:02:15.372Z,82.35
2022-09-20T10:03:15.316Z,81.13
2022-09-20T10:04:15.279Z,80.53
2022-09-20T10:05:15.300Z,78.50
2022-09-20T10:06:15.258Z,79.41
2022-09-20T10:07:15.254Z,79.61
2022-09-20T10:08:15.245Z,80.02
2022-09-20T10:09:15.233Z,80.73
2022-09-20T10:10:15.247Z,79.82
2022-09-20T10:11:15.213Z,80.22
2022-09-20T10:12:15.197Z,77.69
2022-09-20T10:13:15.196Z,77.79
2022-09-20T10:14:15.176Z,79.82
2022-09-20T10:15:15.193Z,80.12
2022-09-20T10:16:15.178Z,79.72
2022-09-20T10:17:15.147Z,79.41
2022-09-20T10:18:15.159Z,78.70
2022-09-20T10:19:18.399Z,78.80
2022-09-20T10:20:15.360Z,79.72
2022-09-20T10:21:15.292Z,79.47
2022-09-20T10:22:15.233Z,79.47
2022-09-20T10:23:45.209Z,78.56
2022-09-20T10:24:15.147Z,78.66
2022-09-20T10:25:15.168Z,78.26
2022-09-20T10:26:15.157Z,78.19
2022-09-20T10:27:15.092Z,78.91
2022-09-20T10:28:15.041Z,78.91
2022-09-20T10:29:15.061Z,80.32
2022-09-20T10:30:15.051Z,79.51
2022-09-20T10:31:15.050Z,79.61
2022-09-20T10:32:15.511Z,78.03
2022-09-20T10:33:14.975Z,79.45
2022-09-20T10:34:14.978Z,80.12
2022-09-20T10:35:14.973Z,78.70
2022-09-20T10:36:14.939Z,76.27
2022-09-20T10:37:14.958Z,76.74
2022-09-20T10:38:14.917Z,77.34
2022-09-20T10:39:14.908Z,76.43
2022-09-20T10:40:14.989Z,77.18
2022-09-20T10:41:14.880Z,77.28
2022-09-20T10:42:14.886Z,76.61
2022-09-20T10:43:14.891Z,76.40
2022-09-20T10:44:14.861Z,77.22
2022-09-20T10:45:29.532Z,76.91
2022-09-20T10:46:31.481Z,78.03
2022-09-20T10:47:14.921Z,78.47
2022-09-20T10:48:14.820Z,78.44
2022-09-20T10:49:14.811Z,78.33
2022-09-20T10:50:14.805Z,77.72
2022-09-20T10:51:14.799Z,78.74
2022-09-20T10:52:14.772Z,79.21
2022-09-20T10:53:14.757Z,77.99
2022-09-20T10:54:14.752Z,77.86
2022-09-20T10:55:14.755Z,77.95
2022-09-20T10:56:14.733Z,78.12
2022-09-20T10:57:14.721Z,76.80
2022-09-20T10:58:14.707Z,77.31
2022-09-20T10:59:14.713Z,76.60
2022-09-20T11:00:14.696Z,75.76
2022-09-20T11:01:14.745Z,71.91
2022-09-20T11:02:14.728Z,72.61
2022-09-20T11:03:14.646Z,71.77
2022-09-20T11:04:14.633Z,73.39
2022-09-20T11:05:14.660Z,74.07
2022-09-20T11:06:14.634Z,73.76
2022-09-20T11:07:14.606Z,69.51
2022-09-20T11:08:14.596Z,70.32
2022-09-20T11:09:14.586Z,72.14
2022-09-20T11:10:14.584Z,73.56
2022-09-20T11:11:21.109Z,73.66
2022-09-20T11:12:14.546Z,73.19
2022-09-20T11:13:14.540Z,73.80
2022-09-20T11:14:14.522Z,74.91
2022-09-20T11:15:14.564Z,73.73
2022-09-20T11:16:14.568Z,71.30
2022-09-20T11:17:14.507Z,72.11
2022-09-20T11:18:14.493Z,73.32
2022-09-20T11:19:14.500Z,72.72
2022-09-20T11:20:14.488Z,73.25
2022-09-20T11:21:14.464Z,73.05
2022-09-20T11:22:14.477Z,73.43
2022-09-20T11:23:14.492Z,74.24
2022-09-20T11:24:14.420Z,74.51
2022-09-20T11:25:19.430Z,73.80
2022-09-20T11:26:14.402Z,73.46
2022-09-20T11:27:14.391Z,73.46
2022-09-20T11:28:14.381Z,73.76
2022-09-20T11:29:14.421Z,73.36
2022-09-20T11:30:14.381Z,71.53
2022-09-20T11:31:14.394Z,73.56
2022-09-20T11:32:14.447Z,73.09
2022-09-20T11:33:14.325Z,72.48
2022-09-20T11:34:14.355Z,72.61
2022-09-20T11:35:14.340Z,73.53
2022-09-20T11:36:14.361Z,74.91
2022-09-20T11:37:14.284Z,74.91
2022-09-20T11:38:14.263Z,72.78
2022-09-20T11:39:14.258Z,73.80
2022-09-20T11:40:14.290Z,75.01
2022-09-20T11:41:14.277Z,75.42
2022-09-20T11:42:14.226Z,74.91
2022-09-20T11:43:14.242Z,74.81
2022-09-20T11:44:14.208Z,74.30
2022-09-20T11:45:14.215Z,74.30
2022-09-20T11:46:14.272Z,74.20
2022-09-20T11:47:15.552Z,73.09
2022-09-20T11:48:14.221Z,73.19
2022-09-20T11:49:14.193Z,73.90
2022-09-20T11:50:14.142Z,73.83
2022-09-20T11:51:14.135Z,75.04
2022-09-20T11:52:14.129Z,74.51
2022-09-20T11:53:14.096Z,74.51
2022-09-20T11:54:14.088Z,74.30
2022-09-20T11:55:14.095Z,74.20
2022-09-20T11:56:14.068Z,74.30
2022-09-20T11:57:14.089Z,74.91
2022-09-20T11:58:14.053Z,74.10
2022-09-20T11:59:14.028Z,73.93
2022-09-20T12:00:14.054Z,74.13
2022-09-20T12:01:14.006Z,74.44
2022-09-20T12:02:14.075Z,73.73
2022-09-20T12:03:14.052Z,74.13
2022-09-20T12:04:31.943Z,74.33
2022-09-20T12:05:14.021Z,72.92
2022-09-20T12:06:13.969Z,71.80
2022-09-20T12:07:17.647Z,71.50
2022-09-20T12:08:13.940Z,73.43
2022-09-20T12:09:13.965Z,75.11
2022-09-20T12:10:13.936Z,75.01
2022-09-20T12:11:13.915Z,73.12
2022-09-20T12:12:13.885Z,73.12
2022-09-20T12:13:13.879Z,72.61
2022-09-20T12:14:13.922Z,72.72
2022-09-20T12:15:13.864Z,72.81
2022-09-20T12:16:13.873Z,74.95
2022-09-20T12:17:13.835Z,74.13
2022-09-20T12:18:13.875Z,72.92
2022-09-20T12:19:13.831Z,73.22
2022-09-20T12:20:19.391Z,73.63
2022-09-20T12:21:16.853Z,73.43
2022-09-20T12:22:13.774Z,73.73
2022-09-20T12:23:13.806Z,75.65
2022-09-20T12:24:13.804Z,75.55
2022-09-20T12:25:13.753Z,74.84
2022-09-20T12:26:13.754Z,74.04
2022-09-20T12:27:13.724Z,74.95
2022-09-20T12:28:13.728Z,75.42
2022-09-20T12:29:13.723Z,75.01
2022-09-20T12:30:13.708Z,73.49
2022-09-20T12:31:13.722Z,73.49
2022-09-20T12:32:13.685Z,72.28
2022-09-20T12:33:13.658Z,72.08
2022-09-20T12:34:13.638Z,73.39
2022-09-20T12:35:13.708Z,73.46
2022-09-20T12:36:13.620Z,74.57
2022-09-20T12:37:13.630Z,71.94
2022-09-20T12:38:13.613Z,72.04
2022-09-20T12:39:16.383Z,72.14
2022-09-20T12:40:13.603Z,72.14
2022-09-20T12:41:13.586Z,71.84
2022-09-20T12:42:16.717Z,70.79
2022-09-20T12:43:13.551Z,70.39
2022-09-20T12:44:13.542Z,72.11
2022-09-20T12:45:13.568Z,73.02
2022-09-20T12:46:13.572Z,72.11
2022-09-20T12:47:13.498Z,71.50
2022-09-20T12:48:13.488Z,71.91
2022-09-20T12:49:13.506Z,71.60
2022-09-20T12:50:13.512Z,72.41
2022-09-20T12:51:13.466Z,72.01
2022-09-20T12:52:13.451Z,71.20
2022-09-20T12:53:13.460Z,69.89
2022-09-20T12:54:13.409Z,70.39
2022-09-20T12:55:13.457Z,69.78
2022-09-20T12:56:13.393Z,69.18